Time;durP1;ratioP1;P1;durP2;ratioP2;P2;SDS_P1;SDS_P2;PMS_P1;PMS_P2;Temp;Humidity;BMP_temperature;BMP_pressure;BME280_temperature;BME280_humidity;BME280_pressure;Samples;Min_cycle;Max_cycle;Signal;HPM_P1;HPM_P2
2023/07/24 00:00:53;;;;;;;4.03;2.85;;;25.30;46.50;;;;;;5040719;28;20055;-66
2023/07/24 00:03:19;;;;;;;4.18;2.92;;;25.30;46.50;;;;;;5039202;28;20025;-67
2023/07/24 00:05:44;;;;;;;4.25;2.92;;;25.30;46.50;;;;;;5040405;28;20083;-66
2023/07/24 00:08:10;;;;;;;3.58;2.70;;;25.30;46.50;;;;;;5039575;28;20033;-67
2023/07/24 00:10:35;;;;;;;4.13;2.88;;;25.30;46.50;;;;;;5039966;28;20112;-66
2023/07/24 00:13:03;;;;;;;4.03;2.92;;;25.30;46.50;;;;;;5039635;28;20033;-67
2023/07/24 00:15:28;;;;;;;4.95;2.80;;;25.30;46.50;;;;;;5039238;28;20047;-66
2023/07/24 00:17:54;;;;;;;4.35;3.08;;;25.30;46.60;;;;;;5039906;28;20026;-66
2023/07/24 00:20:19;;;;;;;4.05;2.95;;;25.30;46.50;;;;;;5039676;28;20039;-67
2023/07/24 00:22:45;;;;;;;4.05;3.10;;;25.30;46.60;;;;;;5040246;28;20112;-66
2023/07/24 00:25:11;;;;;;;3.70;2.70;;;25.30;46.50;;;;;;5038843;28;20034;-67
2023/07/24 00:27:36;;;;;;;3.90;2.78;;;25.30;46.50;;;;;;5040331;28;20392;-67
2023/07/24 00:30:02;;;;;;;3.92;2.80;;;25.30;46.50;;;;;;5041491;28;20025;-67
2023/07/24 00:32:27;;;;;;;3.50;2.67;;;25.30;46.60;;;;;;5041990;28;20021;-67
2023/07/24 00:34:53;;;;;;;3.53;2.70;;;25.30;46.60;;;;;;5038557;28;20029;-66
2023/07/24 00:37:19;;;;;;;4.30;3.22;;;25.30;46.60;;;;;;5038790;28;20323;-67
2023/07/24 00:39:44;;;;;;;3.88;2.80;;;25.30;46.60;;;;;;5036096;28;20044;-66
2023/07/24 00:42:10;;;;;;;3.50;2.80;;;25.30;46.60;;;;;;5037984;28;20056;-67
2023/07/24 00:44:36;;;;;;;3.90;2.80;;;25.30;46.60;;;;;;5037900;28;20024;-66
2023/07/24 00:47:02;;;;;;;3.97;2.70;;;25.30;46.60;;;;;;5039047;28;20556;-66
2023/07/24 00:49:27;;;;;;;4.22;2.72;;;25.30;46.60;;;;;;5040024;28;20112;-67
2023/07/24 00:51:53;;;;;;;3.42;2.60;;;25.30;46.60;;;;;;5038468;28;20119;-66
2023/07/24 00:54:21;;;;;;;4.35;2.88;;;25.30;46.60;;;;;;5038872;28;20503;-66
2023/07/24 00:56:47;;;;;;;3.92;2.88;;;25.20;46.50;;;;;;5038516;28;20104;-67
2023/07/24 00:59:14;;;;;;;3.55;2.70;;;25.20;46.50;;;;;;5039246;28;20104;-68
2023/07/24 01:01:41;;;;;;;4.00;2.70;;;25.20;46.50;;;;;;5038607;28;20051;-67
2023/07/24 01:04:07;;;;;;;3.47;2.47;;;25.20;46.50;;;;;;5040553;28;20444;-67
2023/07/24 01:06:33;;;;;;;3.90;2.90;;;25.30;46.60;;;;;;5038124;28;20434;-65
2023/07/24 01:08:58;;;;;;;3.33;2.60;;;25.30;46.60;;;;;;5035470;28;20112;-66
2023/07/24 01:11:27;;;;;;;3.67;2.70;;;25.20;46.50;;;;;;5038602;28;20092;-67
2023/07/24 01:14:10;;;;;;;3.57;2.50;;;25.20;47.00;;;;;;5039948;28;20413;-66
2023/07/24 01:16:42;;;;;;;3.55;2.58;;;25.30;46.60;;;;;;5037773;28;20032;-67
2023/07/24 01:19:26;;;;;;;4.07;2.88;;;25.30;46.60;;;;;;5037799;28;20083;-66
2023/07/24 01:22:08;;;;;;;3.58;2.40;;;25.30;46.60;;;;;;5038630;28;20033;-66
2023/07/24 01:24:41;;;;;;;3.72;2.70;;;25.20;46.60;;;;;;5037041;28;20139;-66
2023/07/24 01:27:07;;;;;;;4.20;2.67;;;25.20;46.50;;;;;;5038288;28;20168;-66
2023/07/24 01:29:33;;;;;;;3.83;2.70;;;25.20;46.50;;;;;;5036585;28;20479;-67
2023/07/24 01:31:58;;;;;;;3.63;2.55;;;25.20;46.50;;;;;;5038204;28;20021;-66
2023/07/24 01:34:24;;;;;;;3.42;2.60;;;25.20;46.50;;;;;;5038007;28;20388;-66
2023/07/24 01:36:50;;;;;;;3.70;2.50;;;25.30;46.60;;;;;;5037108;28;20027;-67
2023/07/24 01:39:17;;;;;;;3.72;2.60;;;25.30;46.60;;;;;;5038344;28;20021;-66
2023/07/24 01:41:43;;;;;;;3.80;2.72;;;25.20;46.50;;;;;;5038155;28;20452;-66
2023/07/24 01:44:08;;;;;;;3.63;2.72;;;25.20;46.50;;;;;;5038990;28;20108;-67
2023/07/24 01:46:34;;;;;;;3.92;2.83;;;25.30;46.60;;;;;;5039237;28;20053;-66
2023/07/24 01:48:59;;;;;;;3.38;2.50;;;25.20;46.50;;;;;;5039037;28;20021;-67
2023/07/24 01:51:25;;;;;;;3.67;2.65;;;25.20;46.50;;;;;;5036538;28;20030;-66
2023/07/24 01:53:51;;;;;;;3.30;2.38;;;25.30;46.50;;;;;;5035966;28;20449;-67
2023/07/24 01:56:19;;;;;;;3.75;2.75;;;25.20;46.50;;;;;;5037145;28;20100;-66
2023/07/24 01:58:44;;;;;;;4.03;2.42;;;25.30;46.50;;;;;;5039462;28;20147;-66
2023/07/24 02:01:10;;;;;;;3.50;2.50;;;25.20;46.50;;;;;;5036196;28;20029;-67
2023/07/24 02:03:36;;;;;;;3.72;2.50;;;25.20;46.50;;;;;;5037323;28;20048;-66
2023/07/24 02:06:01;;;;;;;3.50;2.25;;;25.20;46.50;;;;;;5036232;28;20112;-66
2023/07/24 02:08:27;;;;;;;3.33;2.45;;;25.20;46.50;;;;;;5036115;28;20099;-66
2023/07/24 02:10:52;;;;;;;3.40;2.40;;;25.20;46.50;;;;;;5035662;28;20060;-66
2023/07/24 02:13:18;;;;;;;3.30;2.40;;;25.20;46.50;;;;;;5037399;28;20021;-66
2023/07/24 02:15:44;;;;;;;3.10;2.20;;;25.20;46.50;;;;;;5038016;28;20079;-66
2023/07/24 02:18:10;;;;;;;3.33;2.42;;;25.20;46.50;;;;;;5037235;28;20402;-67
2023/07/24 02:20:35;;;;;;;3.17;2.30;;;25.20;46.50;;;;;;5035797;28;20025;-67
2023/07/24 02:23:01;;;;;;;3.55;2.55;;;25.20;46.50;;;;;;5038989;28;20036;-66
2023/07/24 02:25:27;;;;;;;3.05;2.30;;;25.20;46.50;;;;;;5035267;28;20497;-66
2023/07/24 02:27:52;;;;;;;3.30;2.42;;;25.20;46.50;;;;;;5038942;28;20032;-66
2023/07/24 02:30:18;;;;;;;3.50;2.70;;;25.20;46.40;;;;;;5037833;28;20021;-66
2023/07/24 02:32:43;;;;;;;3.75;2.53;;;25.20;46.50;;;;;;5037949;28;20037;-66
2023/07/24 02:35:09;;;;;;;3.30;2.30;;;25.20;46.50;;;;;;5037267;28;20458;-66
2023/07/24 02:37:34;;;;;;;3.33;2.53;;;25.20;46.50;;;;;;5037114;28;20041;-66
2023/07/24 02:40:00;;;;;;;4.10;2.83;;;25.20;46.50;;;;;;5036508;28;20044;-66
2023/07/24 02:42:26;;;;;;;3.60;2.40;;;25.20;46.50;;;;;;5044545;28;20112;-67
2023/07/24 02:44:53;;;;;;;3.10;2.30;;;25.20;46.50;;;;;;5037655;28;20417;-65
2023/07/24 02:47:18;;;;;;;3.00;2.25;;;25.20;47.00;;;;;;5045096;28;20037;-65
2023/07/24 02:49:44;;;;;;;4.03;2.20;;;25.20;46.50;;;;;;5036489;28;20036;-67
2023/07/24 02:52:09;;;;;;;3.20;2.53;;;25.20;46.50;;;;;;5036967;28;20489;-67
2023/07/24 02:54:35;;;;;;;3.15;2.28;;;25.20;46.50;;;;;;5037581;28;20032;-67
2023/07/24 02:57:02;;;;;;;4.10;2.67;;;25.20;46.50;;;;;;5038867;28;20072;-65
2023/07/24 02:59:28;;;;;;;3.47;2.55;;;25.20;46.50;;;;;;5035478;28;20163;-65
2023/07/24 03:01:54;;;;;;;3.33;2.50;;;25.20;46.50;;;;;;5069000;28;20059;-65
2023/07/24 03:04:20;;;;;;;3.10;2.35;;;25.20;46.50;;;;;;5035365;28;20025;-66
2023/07/24 03:06:45;;;;;;;3.88;2.53;;;25.10;46.40;;;;;;5034881;28;20083;-65
2023/07/24 03:09:11;;;;;;;3.80;2.50;;;25.10;46.40;;;;;;5036899;28;20037;-67
2023/07/24 03:11:37;;;;;;;3.00;2.28;;;25.10;46.40;;;;;;5037750;28;20049;-67
2023/07/24 03:14:02;;;;;;;2.83;2.00;;;25.10;46.40;;;;;;5037137;28;20385;-67
2023/07/24 03:16:28;;;;;;;3.15;2.50;;;25.10;46.40;;;;;;5035317;28;20032;-68
2023/07/24 03:18:53;;;;;;;3.50;2.28;;;25.20;46.50;;;;;;5036736;28;20381;-66
2023/07/24 03:21:20;;;;;;;2.85;2.25;;;25.10;46.40;;;;;;5037231;28;20048;-67
2023/07/24 03:23:46;;;;;;;3.35;2.13;;;25.10;46.50;;;;;;5036916;28;20034;-66
2023/07/24 03:26:11;;;;;;;3.30;2.35;;;25.10;46.50;;;;;;5065219;28;20485;-67
2023/07/24 03:28:37;;;;;;;3.00;2.20;;;25.10;46.50;;;;;;5036765;28;20773;-66
2023/07/24 03:31:03;;;;;;;3.40;2.50;;;25.10;46.40;;;;;;5036956;28;20037;-66
2023/07/24 03:33:28;;;;;;;3.78;2.50;;;25.10;46.40;;;;;;5043149;28;20032;-67
2023/07/24 03:35:54;;;;;;;3.13;2.20;;;25.20;46.50;;;;;;5041761;28;20048;-67
2023/07/24 03:38:20;;;;;;;3.25;2.40;;;25.10;46.50;;;;;;5040791;28;20021;-66
2023/07/24 03:40:47;;;;;;;2.88;2.17;;;25.10;46.50;;;;;;5039106;28;20049;-66
2023/07/24 03:43:12;;;;;;;3.20;2.30;;;25.10;46.50;;;;;;5039532;28;20032;-67
2023/07/24 03:45:38;;;;;;;3.35;2.22;;;25.10;46.50;;;;;;5037952;28;20029;-67
2023/07/24 03:48:04;;;;;;;3.60;2.30;;;25.10;46.50;;;;;;5039578;28;20069;-66
2023/07/24 03:50:30;;;;;;;3.88;2.78;;;25.10;46.50;;;;;;5042096;28;20032;-66
2023/07/24 03:52:55;;;;;;;3.13;2.33;;;25.10;47.00;;;;;;5040557;28;20022;-67
2023/07/24 03:55:21;;;;;;;3.25;2.30;;;25.10;46.50;;;;;;5038815;28;20488;-67
2023/07/24 03:57:47;;;;;;;3.25;2.30;;;25.10;46.50;;;;;;5038530;28;20365;-67
2023/07/24 04:00:13;;;;;;;3.35;2.30;;;25.10;46.50;;;;;;5037076;28;20083;-67
2023/07/24 04:02:39;;;;;;;3.38;2.53;;;25.10;46.50;;;;;;5038609;28;20531;-67
2023/07/24 04:05:05;;;;;;;3.10;2.22;;;25.10;46.50;;;;;;5040510;28;20041;-67
2023/07/24 04:07:31;;;;;;;3.25;2.13;;;25.10;46.50;;;;;;5039171;28;20084;-67
2023/07/24 04:09:56;;;;;;;3.92;2.58;;;25.10;46.50;;;;;;5038427;28;20041;-67
2023/07/24 04:12:22;;;;;;;3.35;2.38;;;25.10;46.50;;;;;;5041568;28;20116;-67
2023/07/24 04:14:48;;;;;;;3.03;2.13;;;25.10;46.50;;;;;;5040850;28;20029;-67
2023/07/24 04:17:15;;;;;;;3.72;2.42;;;25.10;46.50;;;;;;5070983;28;20021;-67
2023/07/24 04:19:40;;;;;;;3.00;2.17;;;25.10;46.50;;;;;;5039053;28;20026;-67
2023/07/24 04:22:06;;;;;;;3.22;2.40;;;25.10;46.40;;;;;;5041187;28;20040;-67
2023/07/24 04:24:31;;;;;;;3.05;2.40;;;25.10;46.40;;;;;;5040394;28;20100;-67
2023/07/24 04:26:57;;;;;;;3.60;2.20;;;25.10;46.50;;;;;;5039697;28;20099;-67
2023/07/24 04:29:25;;;;;;;3.35;2.28;;;25.10;46.50;;;;;;5040194;28;20887;-67
2023/07/24 04:31:51;;;;;;;3.55;2.38;;;25.10;46.60;;;;;;5040372;28;20040;-67
2023/07/24 04:34:17;;;;;;;3.60;2.60;;;25.10;46.60;;;;;;5040304;28;20064;-67
2023/07/24 04:36:43;;;;;;;3.60;2.53;;;25.10;46.70;;;;;;5040041;28;20048;-67
2023/07/24 04:39:08;;;;;;;3.30;2.47;;;25.10;46.70;;;;;;5038493;28;20104;-67
2023/07/24 04:41:34;;;;;;;3.53;2.50;;;25.10;46.70;;;;;;5036747;28;20025;-67
2023/07/24 04:43:59;;;;;;;4.00;2.70;;;25.10;46.70;;;;;;5038843;28;20512;-66
2023/07/24 04:46:25;;;;;;;3.40;2.50;;;25.10;46.70;;;;;;5039647;28;20096;-67
2023/07/24 04:48:51;;;;;;;4.20;2.83;;;25.10;47.20;;;;;;5038310;28;20083;-66
2023/07/24 04:51:18;;;;;;;3.55;2.50;;;25.10;47.20;;;;;;5036953;28;20047;-66
2023/07/24 04:53:44;;;;;;;3.38;2.45;;;25.10;46.70;;;;;;5047403;28;20120;-66
2023/07/24 04:56:10;;;;;;;4.10;2.70;;;25.00;46.60;;;;;;5037554;28;20109;-67
2023/07/24 04:58:36;;;;;;;3.50;2.58;;;25.00;46.60;;;;;;5047052;28;20389;-66
2023/07/24 05:01:05;;;;;;;3.85;2.40;;;25.00;46.60;;;;;;5039060;28;20032;-67
2023/07/24 05:03:31;;;;;;;3.53;2.60;;;25.00;46.60;;;;;;5039532;28;20381;-67
2023/07/24 05:05:57;;;;;;;3.70;2.40;;;25.00;46.60;;;;;;5039765;28;20113;-67
2023/07/24 05:08:23;;;;;;;3.40;2.60;;;25.00;46.60;;;;;;5039049;28;20105;-67
2023/07/24 05:10:57;;;;;;;3.10;2.30;;;25.00;46.60;;;;;;5038910;28;20380;-67
2023/07/24 05:13:22;;;;;;;3.45;2.42;;;25.00;46.60;;;;;;5055432;28;20067;-68
2023/07/24 05:15:48;;;;;;;3.50;2.53;;;25.00;46.60;;;;;;5039306;28;20532;-68
2023/07/24 05:18:14;;;;;;;3.92;2.70;;;25.00;46.60;;;;;;5039139;28;20037;-68
2023/07/24 05:20:45;;;;;;;3.35;2.20;;;25.00;46.60;;;;;;5039050;28;20033;-67
2023/07/24 05:23:11;;;;;;;3.17;2.50;;;25.00;46.60;;;;;;5034873;28;20489;-67
2023/07/24 05:25:36;;;;;;;4.20;2.78;;;25.10;46.70;;;;;;5037250;28;20029;-66
2023/07/24 05:28:02;;;;;;;3.58;2.30;;;25.00;46.60;;;;;;5038237;28;20453;-66
2023/07/24 05:30:28;;;;;;;3.72;2.53;;;25.00;46.60;;;;;;5039289;28;20064;-67
2023/07/24 05:32:54;;;;;;;3.65;2.45;;;25.00;46.60;;;;;;5038186;28;20053;-67
2023/07/24 05:35:20;;;;;;;3.83;2.50;;;25.00;46.60;;;;;;5038383;28;20097;-67
2023/07/24 05:37:45;;;;;;;3.55;2.70;;;25.00;46.60;;;;;;5038857;28;20448;-67
2023/07/24 05:40:11;;;;;;;3.63;2.60;;;25.00;46.60;;;;;;5038950;28;20041;-67
2023/07/24 05:42:41;;;;;;;3.90;2.60;;;25.00;46.60;;;;;;5035403;28;20049;-67
2023/07/24 05:45:08;;;;;;;3.50;2.53;;;25.00;46.60;;;;;;5038925;28;20453;-67
2023/07/24 05:47:34;;;;;;;3.42;2.50;;;25.00;46.80;;;;;;5039704;28;20475;-66
2023/07/24 05:49:59;;;;;;;3.75;2.58;;;25.00;46.70;;;;;;5070272;28;20540;-67
2023/07/24 05:52:25;;;;;;;3.40;2.40;;;25.00;46.70;;;;;;5037700;28;20029;-67
2023/07/24 05:54:51;;;;;;;3.25;2.38;;;25.00;46.70;;;;;;5037023;28;20480;-65
2023/07/24 05:57:16;;;;;;;3.92;2.40;;;25.00;46.60;;;;;;5034554;28;20124;-63
2023/07/24 05:59:42;;;;;;;3.70;2.63;;;25.00;46.60;;;;;;5037510;28;20350;-65
2023/07/24 06:02:09;;;;;;;5.07;2.63;;;25.00;46.60;;;;;;5039277;28;20036;-64
2023/07/24 06:04:34;;;;;;;3.28;2.17;;;25.00;46.60;;;;;;5038494;28;20516;-65
2023/07/24 06:07:00;;;;;;;3.88;2.53;;;24.90;46.60;;;;;;5037022;28;20033;-64
2023/07/24 06:09:26;;;;;;;3.50;2.47;;;25.00;46.60;;;;;;5038453;28;20028;-64
2023/07/24 06:11:51;;;;;;;3.28;2.30;;;25.00;46.60;;;;;;5036472;28;20029;-66
2023/07/24 06:14:17;;;;;;;3.50;2.35;;;24.90;46.60;;;;;;5037555;28;20026;-66
2023/07/24 06:16:42;;;;;;;3.35;2.60;;;25.00;46.70;;;;;;5037583;28;20025;-66
2023/07/24 06:19:08;;;;;;;3.72;2.72;;;25.00;46.70;;;;;;5038021;28;20033;-66
2023/07/24 06:21:34;;;;;;;3.25;2.30;;;25.00;46.60;;;;;;5038574;28;20025;-66
2023/07/24 06:23:59;;;;;;;3.00;2.33;;;24.90;46.60;;;;;;5038359;28;20037;-64
2023/07/24 06:26:25;;;;;;;3.75;2.47;;;25.00;46.70;;;;;;5037282;28;20489;-66
2023/07/24 06:28:51;;;;;;;3.97;2.45;;;25.00;46.60;;;;;;5035909;28;20425;-67
2023/07/24 06:31:16;;;;;;;3.10;2.35;;;25.00;46.60;;;;;;5037359;28;20032;-66
2023/07/24 06:33:42;;;;;;;3.10;2.30;;;24.90;46.60;;;;;;5039135;28;20464;-66
2023/07/24 06:36:11;;;;;;;3.70;2.60;;;24.90;46.60;;;;;;5036185;28;20045;-67
2023/07/24 06:38:39;;;;;;;3.65;2.60;;;24.90;46.60;;;;;;5037829;28;20063;-66
2023/07/24 06:41:04;;;;;;;3.50;2.30;;;24.90;46.60;;;;;;5036730;28;20034;-65
2023/07/24 06:43:30;;;;;;;2.88;2.00;;;24.90;46.60;;;;;;5039586;28;20568;-66
2023/07/24 06:45:56;;;;;;;3.92;2.70;;;25.00;46.70;;;;;;5038428;28;20022;-65
2023/07/24 06:48:21;;;;;;;3.35;2.15;;;24.90;46.60;;;;;;5039199;28;20501;-66
2023/07/24 06:50:47;;;;;;;3.65;2.33;;;24.90;46.60;;;;;;5036319;28;20031;-66
2023/07/24 06:53:13;;;;;;;4.07;2.42;;;24.90;46.60;;;;;;5035797;28;20029;-66
2023/07/24 06:55:38;;;;;;;3.40;2.40;;;24.90;46.60;;;;;;5036717;28;20029;-65
2023/07/24 06:58:04;;;;;;;3.88;2.50;;;24.90;46.60;;;;;;5037449;28;20507;-66
2023/07/24 07:00:32;;;;;;;4.07;2.65;;;24.90;46.60;;;;;;5037787;28;20079;-66
2023/07/24 07:02:58;;;;;;;3.05;2.40;;;24.90;46.70;;;;;;5068728;28;20033;-66
2023/07/24 07:05:23;;;;;;;3.17;2.47;;;24.90;46.60;;;;;;5046202;28;20031;-66
2023/07/24 07:07:49;;;;;;;3.45;2.50;;;24.90;46.70;;;;;;5041603;28;20029;-65
2023/07/24 07:10:15;;;;;;;3.50;2.55;;;24.90;46.60;;;;;;5041629;28;20385;-65
2023/07/24 07:12:40;;;;;;;3.17;2.30;;;24.90;46.60;;;;;;5041255;28;20028;-65
2023/07/24 07:15:07;;;;;;;3.67;2.70;;;24.90;46.70;;;;;;5042510;28;20033;-66
2023/07/24 07:17:32;;;;;;;3.78;2.60;;;24.90;46.70;;;;;;5041455;28;20097;-66
2023/07/24 07:19:58;;;;;;;4.70;2.60;;;24.90;46.60;;;;;;5041040;28;20124;-66
2023/07/24 07:22:23;;;;;;;4.05;2.70;;;24.90;46.70;;;;;;5041751;28;20082;-66
2023/07/24 07:24:49;;;;;;;3.78;2.70;;;24.90;46.70;;;;;;5040418;28;20033;-65
2023/07/24 07:27:17;;;;;;;3.80;2.90;;;24.90;46.70;;;;;;5036731;28;20032;-65
2023/07/24 07:29:43;;;;;;;3.53;2.50;;;24.90;46.70;;;;;;5039954;28;20025;-66
2023/07/24 07:32:09;;;;;;;3.65;2.60;;;24.90;46.70;;;;;;5040558;28;20887;-66
2023/07/24 07:34:35;;;;;;;3.30;2.25;;;24.90;46.70;;;;;;5041292;28;20117;-65
2023/07/24 07:37:01;;;;;;;4.28;2.83;;;24.90;46.70;;;;;;5042009;28;20178;-65
2023/07/24 07:39:27;;;;;;;3.83;2.70;;;24.90;46.70;;;;;;5039870;28;20429;-65
2023/07/24 07:41:52;;;;;;;3.95;2.65;;;24.90;46.70;;;;;;5038183;28;20029;-65
2023/07/24 07:44:18;;;;;;;3.78;2.50;;;24.90;46.70;;;;;;5039803;28;20044;-66
2023/07/24 07:46:43;;;;;;;3.65;2.67;;;24.90;46.80;;;;;;5040554;28;20489;-66
2023/07/24 07:49:09;;;;;;;4.30;2.97;;;24.90;46.80;;;;;;5040355;28;20029;-66
2023/07/24 07:51:35;;;;;;;4.05;2.80;;;24.90;46.80;;;;;;5039783;28;20422;-65
2023/07/24 07:54:00;;;;;;;3.47;2.60;;;24.90;46.80;;;;;;5039207;28;20104;-65
2023/07/24 07:56:26;;;;;;;4.70;2.88;;;24.90;46.80;;;;;;5040776;28;20030;-66
2023/07/24 07:58:52;;;;;;;3.63;2.70;;;24.80;46.80;;;;;;5038281;28;20049;-65
2023/07/24 08:01:17;;;;;;;4.13;3.03;;;24.90;46.80;;;;;;5041897;28;20033;-65
2023/07/24 08:03:43;;;;;;;3.53;2.55;;;24.80;46.80;;;;;;5045060;28;20021;-66
2023/07/24 08:06:08;;;;;;;4.18;2.90;;;24.90;46.80;;;;;;5039276;28;20093;-66
2023/07/24 08:08:34;;;;;;;3.80;2.70;;;24.90;46.90;;;;;;5040000;28;20029;-66
2023/07/24 08:11:05;;;;;;;4.28;3.10;;;24.90;46.90;;;;;;5038951;28;20065;-66
2023/07/24 08:13:30;;;;;;;4.10;2.88;;;24.80;46.80;;;;;;5038029;28;20024;-66
2023/07/24 08:15:56;;;;;;;4.68;3.00;;;24.90;47.40;;;;;;5040115;28;20032;-66
2023/07/24 08:18:22;;;;;;;4.53;2.80;;;24.80;46.80;;;;;;5039454;28;20120;-66
2023/07/24 08:20:47;;;;;;;4.40;2.88;;;24.80;46.80;;;;;;5040578;28;20033;-65
2023/07/24 08:23:13;;;;;;;3.78;2.45;;;24.90;46.90;;;;;;5039025;28;20124;-65
2023/07/24 08:25:38;;;;;;;3.88;2.65;;;24.90;46.90;;;;;;5039239;28;20029;-65
2023/07/24 08:28:04;;;;;;;4.28;3.03;;;24.80;46.90;;;;;;5036609;28;20111;-65
2023/07/24 08:30:31;;;;;;;4.03;2.85;;;24.80;46.80;;;;;;5038657;28;20057;-66
2023/07/24 08:32:57;;;;;;;4.72;3.05;;;24.80;46.90;;;;;;5042033;28;20036;-65
2023/07/24 08:35:23;;;;;;;4.47;2.97;;;24.80;46.80;;;;;;5038214;28;20428;-65
2023/07/24 08:37:49;;;;;;;3.92;2.80;;;24.80;46.90;;;;;;5040295;28;20076;-65
2023/07/24 08:40:15;;;;;;;4.38;2.80;;;24.80;46.80;;;;;;5040184;28;20104;-65
2023/07/24 08:42:43;;;;;;;3.28;2.55;;;24.80;46.80;;;;;;5038056;28;20034;-66
2023/07/24 08:45:15;;;;;;;4.47;2.90;;;24.80;46.90;;;;;;5039604;28;20088;-66
2023/07/24 08:47:45;;;;;;;3.85;2.85;;;24.80;46.90;;;;;;5037715;28;20029;-66
2023/07/24 08:50:15;;;;;;;3.60;2.50;;;24.80;46.90;;;;;;5038593;28;20037;-65
2023/07/24 08:52:42;;;;;;;3.67;2.58;;;24.80;46.90;;;;;;5038762;28;20030;-66
2023/07/24 08:55:09;;;;;;;3.75;2.58;;;24.80;46.90;;;;;;5037787;28;20036;-66
2023/07/24 08:57:35;;;;;;;4.00;2.88;;;24.80;46.90;;;;;;5035633;28;20387;-66
2023/07/24 09:00:04;;;;;;;3.60;2.60;;;24.80;47.40;;;;;;5039649;28;20033;-66
2023/07/24 09:02:34;;;;;;;4.03;2.65;;;24.80;46.90;;;;;;5038527;28;20029;-65
2023/07/24 09:05:00;;;;;;;4.55;2.80;;;24.80;46.90;;;;;;5037805;28;20447;-65
2023/07/24 09:07:26;;;;;;;4.40;3.00;;;24.80;46.90;;;;;;5040791;28;20112;-66
2023/07/24 09:09:52;;;;;;;4.20;2.80;;;24.80;46.90;;;;;;5037958;28;20453;-66
2023/07/24 09:12:18;;;;;;;4.22;2.80;;;24.80;46.90;;;;;;5037929;28;20039;-66
2023/07/24 09:14:45;;;;;;;3.95;2.95;;;24.80;46.90;;;;;;5038955;28;20025;-66
2023/07/24 09:17:11;;;;;;;4.75;2.90;;;24.80;46.90;;;;;;5039259;28;20128;-65
2023/07/24 09:19:38;;;;;;;4.45;2.92;;;24.80;47.40;;;;;;5038858;28;20068;-66
2023/07/24 09:22:16;;;;;;;4.13;2.90;;;24.80;46.90;;;;;;5037964;28;20067;-66
2023/07/24 09:24:57;;;;;;;5.30;2.90;;;24.80;46.90;;;;;;5039172;28;20115;-66
2023/07/24 09:27:28;;;;;;;3.97;2.83;;;24.80;47.00;;;;;;5036840;28;20443;-65
2023/07/24 09:29:57;;;;;;;3.70;2.75;;;24.80;46.90;;;;;;5037132;28;20375;-66
2023/07/24 09:32:25;;;;;;;3.97;2.70;;;24.80;47.00;;;;;;5036904;28;20116;-65
2023/07/24 09:34:53;;;;;;;4.18;2.63;;;24.80;46.90;;;;;;5035746;28;20396;-65
2023/07/24 09:37:35;;;;;;;3.83;3.00;;;24.80;46.90;;;;;;5039117;28;20389;-66
2023/07/24 09:40:04;;;;;;;3.65;2.70;;;24.80;47.20;;;;;;5039136;28;20039;-65
2023/07/24 09:42:37;;;;;;;3.70;2.70;;;24.80;46.90;;;;;;5036810;28;20040;-66
2023/07/24 09:45:04;;;;;;;4.00;2.75;;;24.80;46.90;;;;;;5037202;28;20116;-65
2023/07/24 09:47:31;;;;;;;4.10;2.67;;;24.80;46.90;;;;;;5067828;28;20028;-66
2023/07/24 09:49:58;;;;;;;3.33;2.30;;;24.80;46.90;;;;;;5039420;28;20061;-66
2023/07/24 09:52:26;;;;;;;4.43;3.00;;;24.80;46.90;;;;;;5035390;28;20122;-66
2023/07/24 09:55:11;;;;;;;3.42;2.45;;;24.80;46.90;;;;;;5036636;28;20041;-65
2023/07/24 09:57:37;;;;;;;3.70;2.60;;;24.80;47.00;;;;;;5036168;28;20446;-65
2023/07/24 10:00:03;;;;;;;3.47;2.47;;;24.80;46.90;;;;;;5038030;28;20393;-66
2023/07/24 10:02:30;;;;;;;3.30;2.38;;;24.80;47.00;;;;;;5039324;28;20452;-66
2023/07/24 10:04:56;;;;;;;3.58;2.50;;;24.80;47.00;;;;;;5041285;28;20413;-66
2023/07/24 10:07:23;;;;;;;3.70;2.40;;;24.80;47.00;;;;;;5039420;28;20029;-66
2023/07/24 10:09:52;;;;;;;3.50;2.45;;;24.80;46.90;;;;;;5039518;28;20385;-65
2023/07/24 10:12:19;;;;;;;3.05;2.35;;;24.80;47.00;;;;;;5038068;28;20051;-65
2023/07/24 10:14:46;;;;;;;3.72;2.55;;;24.80;47.00;;;;;;5034622;28;20033;-65
2023/07/24 10:17:12;;;;;;;3.80;2.70;;;24.80;47.00;;;;;;5037691;28;20385;-66
2023/07/24 10:19:45;;;;;;;3.60;2.40;;;24.80;47.00;;;;;;5038438;28;20063;-65
2023/07/24 10:22:20;;;;;;;3.50;2.50;;;24.80;47.00;;;;;;5037495;28;20021;-66
2023/07/24 10:24:47;;;;;;;3.75;2.80;;;24.80;47.00;;;;;;5037938;28;20083;-65
2023/07/24 10:27:12;;;;;;;3.50;2.53;;;24.80;47.00;;;;;;5037521;28;20051;-66
2023/07/24 10:29:38;;;;;;;3.45;2.60;;;24.80;47.00;;;;;;5035672;28;20045;-65
2023/07/24 10:32:25;;;;;;;3.85;2.65;;;24.80;47.00;;;;;;5037837;28;20060;-65
2023/07/24 10:35:10;;;;;;;3.50;2.70;;;24.80;47.00;;;;;;5035623;28;20048;-65
2023/07/24 10:37:37;;;;;;;3.58;2.30;;;24.80;47.00;;;;;;5038062;28;20669;-66
2023/07/24 10:40:04;;;;;;;3.35;2.47;;;24.80;47.10;;;;;;5037102;28;20536;-66
2023/07/24 10:42:30;;;;;;;3.45;2.55;;;24.80;47.00;;;;;;5037741;28;20033;-66
2023/07/24 10:45:22;;;;;;;3.92;2.58;;;24.80;47.00;;;;;;5034831;28;20535;-65
2023/07/24 10:47:48;;;;;;;3.75;2.67;;;24.80;47.00;;;;;;5037494;28;20052;-66
2023/07/24 10:50:15;;;;;;;3.67;2.78;;;24.80;47.00;;;;;;5058654;28;20810;-65
2023/07/24 10:52:41;;;;;;;3.80;2.60;;;24.80;47.10;;;;;;5055920;28;20060;-66
2023/07/24 10:55:07;;;;;;;3.95;2.42;;;24.80;47.00;;;;;;5057791;28;20036;-66
2023/07/24 10:57:33;;;;;;;3.60;2.40;;;24.90;47.10;;;;;;5056474;28;20106;-66
2023/07/24 10:59:59;;;;;;;3.95;2.50;;;24.80;47.10;;;;;;5056060;28;20040;-65
2023/07/24 11:02:25;;;;;;;4.03;2.78;;;24.80;47.10;;;;;;5058485;28;20123;-66
2023/07/24 11:04:51;;;;;;;3.92;2.40;;;24.80;47.10;;;;;;5058416;28;20112;-65
2023/07/24 11:07:17;;;;;;;3.08;2.20;;;24.90;47.10;;;;;;5055563;28;20079;-66
2023/07/24 11:09:46;;;;;;;3.38;2.30;;;24.80;47.10;;;;;;5056399;28;20498;-65
2023/07/24 11:12:15;;;;;;;3.35;2.60;;;24.80;47.10;;;;;;5056101;28;20499;-66
2023/07/24 11:14:54;;;;;;;3.20;2.40;;;24.80;47.10;;;;;;5054931;28;20422;-65
2023/07/24 11:17:19;;;;;;;3.63;2.43;;;24.80;47.20;;;;;;5056356;28;20520;-65
2023/07/24 11:19:45;;;;;;;3.30;2.40;;;24.80;47.20;;;;;;5055782;28;20108;-65
2023/07/24 11:22:11;;;;;;;3.42;2.50;;;24.90;47.20;;;;;;5057870;28;20492;-66
2023/07/24 11:24:45;;;;;;;3.42;2.38;;;24.80;47.20;;;;;;5056895;28;20429;-66
2023/07/24 11:27:16;;;;;;;3.65;2.60;;;24.80;47.20;;;;;;5054646;28;20037;-66
2023/07/24 11:29:47;;;;;;;3.78;2.40;;;24.90;47.30;;;;;;5054614;28;20554;-66
2023/07/24 11:32:12;;;;;;;3.05;2.25;;;24.80;47.20;;;;;;5057519;28;20071;-65
2023/07/24 11:34:38;;;;;;;3.58;2.40;;;24.80;47.20;;;;;;5057914;28;20051;-66
2023/07/24 11:37:05;;;;;;;3.53;2.35;;;24.90;47.30;;;;;;5072430;28;20109;-64
2023/07/24 11:39:31;;;;;;;3.58;2.58;;;24.80;47.30;;;;;;5055745;28;20029;-68
2023/07/24 11:41:58;;;;;;;3.60;2.40;;;24.90;47.40;;;;;;5057333;28;20389;-68
2023/07/24 11:44:26;;;;;;;3.33;2.38;;;24.80;47.30;;;;;;5055068;28;20046;-68
2023/07/24 11:46:59;;;;;;;4.22;2.40;;;24.90;47.30;;;;;;5056356;28;20119;-68
2023/07/24 11:49:25;;;;;;;3.58;2.45;;;24.80;47.30;;;;;;5057678;28;20464;-68
2023/07/24 11:51:51;;;;;;;3.70;2.50;;;24.90;47.30;;;;;;5057101;28;20130;-68
2023/07/24 11:54:16;;;;;;;3.55;2.40;;;24.90;47.30;;;;;;5060591;28;20115;-68
2023/07/24 11:56:42;;;;;;;3.03;2.38;;;24.80;47.30;;;;;;5061020;28;20166;-68
2023/07/24 11:59:12;;;;;;;3.38;2.30;;;24.80;47.30;;;;;;5059961;28;20037;-68
2023/07/24 12:01:38;;;;;;;3.50;2.45;;;24.80;47.30;;;;;;5060800;28;20555;-68
2023/07/24 12:04:04;;;;;;;3.22;2.22;;;24.90;47.30;;;;;;5061025;28;20144;-68
2023/07/24 12:06:32;;;;;;;3.60;2.35;;;24.90;47.30;;;;;;5061458;28;20032;-68
2023/07/24 12:09:04;;;;;;;2.95;2.30;;;24.80;47.30;;;;;;5057318;28;20032;-68
2023/07/24 12:11:31;;;;;;;3.20;2.22;;;24.90;47.30;;;;;;5060604;28;20040;-68
2023/07/24 12:13:57;;;;;;;3.28;2.30;;;24.90;47.40;;;;;;5059530;28;20442;-68
2023/07/24 12:16:22;;;;;;;3.30;2.40;;;24.90;47.40;;;;;;5061588;28;20036;-68
2023/07/24 12:18:48;;;;;;;3.40;2.20;;;24.80;47.30;;;;;;5058196;28;20021;-68
2023/07/24 12:21:13;;;;;;;3.90;2.60;;;24.90;47.30;;;;;;5057850;28;20040;-68
2023/07/24 12:23:39;;;;;;;3.20;2.22;;;24.90;47.30;;;;;;5062143;28;20020;-68
2023/07/24 12:26:05;;;;;;;2.90;2.10;;;24.90;47.30;;;;;;5059593;28;20046;-68
2023/07/24 12:28:30;;;;;;;3.33;2.30;;;24.90;47.40;;;;;;5060061;28;20511;-68
2023/07/24 12:30:56;;;;;;;3.40;2.25;;;24.90;47.40;;;;;;5058049;28;20041;-68
2023/07/24 12:33:25;;;;;;;3.10;2.20;;;24.90;47.30;;;;;;5060126;28;20025;-68
2023/07/24 12:35:51;;;;;;;3.35;2.20;;;24.90;47.40;;;;;;5060227;28;20086;-68
2023/07/24 12:38:17;;;;;;;2.92;2.08;;;24.90;47.30;;;;;;5060595;28;20348;-68
2023/07/24 12:40:43;;;;;;;3.15;2.20;;;24.90;47.40;;;;;;5065011;28;20039;-68
2023/07/24 12:43:08;;;;;;;3.40;2.50;;;24.90;47.30;;;;;;5059382;28;20426;-68
2023/07/24 12:45:34;;;;;;;3.47;2.20;;;24.90;47.30;;;;;;5058746;28;20040;-68